Time;durP1;ratioP1;P1;durP2;ratioP2;P2;SDS_P1;SDS_P2;PMS_P1;PMS_P2;Temp;Humidity;BMP_temperature;BMP_pressure;BME280_temperature;BME280_humidity;BME280_pressure;Samples;Min_cycle;Max_cycle;Signal;HPM_P1;HPM_P2
2022/12/05 00:01:16;;;;;;;36.70;19.00;;;10.00;99.90;;;;;;5062928;28;20245;-67
2022/12/05 00:03:44;;;;;;;42.53;19.97;;;10.00;99.90;;;;;;5060117;28;20232;-67
2022/12/05 00:06:11;;;;;;;40.47;19.40;;;10.00;99.90;;;;;;5058662;28;20330;-67
2022/12/05 00:08:38;;;;;;;40.53;19.63;;;10.00;99.90;;;;;;5059618;28;20220;-67
2022/12/05 00:11:18;;;;;;;44.17;19.00;;;10.00;99.90;;;;;;5065397;28;20241;-67
2022/12/05 00:13:47;;;;;;;41.20;19.47;;;10.00;99.90;;;;;;5063326;28;20597;-67
2022/12/05 00:16:17;;;;;;;32.70;18.67;;;10.00;99.90;;;;;;5063127;28;20195;-67
2022/12/05 00:18:44;;;;;;;43.83;20.33;;;10.00;99.90;;;;;;5068022;28;20203;-67
2022/12/05 00:21:14;;;;;;;41.10;19.77;;;10.00;99.90;;;;;;5057800;28;20652;-67
2022/12/05 00:23:41;;;;;;;43.47;18.67;;;10.00;99.90;;;;;;5057206;28;20204;-68
2022/12/05 00:26:09;;;;;;;38.33;18.07;;;10.00;99.90;;;;;;5063804;28;20624;-68
2022/12/05 00:28:37;;;;;;;42.17;18.27;;;10.00;99.90;;;;;;5061336;28;20639;-68
2022/12/05 00:31:09;;;;;;;34.33;18.23;;;10.10;99.90;;;;;;5059597;28;20442;-67
2022/12/05 00:33:37;;;;;;;44.83;19.23;;;10.10;99.90;;;;;;5060717;28;20215;-67
2022/12/05 00:36:10;;;;;;;36.73;17.87;;;10.10;99.90;;;;;;5063292;28;20207;-67
2022/12/05 00:38:38;;;;;;;33.90;17.57;;;10.10;99.90;;;;;;5064868;28;20202;-67
2022/12/05 00:41:07;;;;;;;35.97;18.37;;;10.10;99.90;;;;;;5062635;28;20219;-67
2022/12/05 00:43:35;;;;;;;42.87;19.20;;;10.10;99.90;;;;;;5063722;28;20202;-68
2022/12/05 00:46:08;;;;;;;39.83;19.27;;;10.20;99.90;;;;;;5061792;28;20535;-67
2022/12/05 00:48:36;;;;;;;33.20;17.67;;;10.20;99.90;;;;;;5063682;28;20218;-68
2022/12/05 00:51:05;;;;;;;39.83;18.27;;;10.20;99.90;;;;;;5060422;28;20224;-68
2022/12/05 00:53:32;;;;;;;37.73;18.20;;;10.20;99.90;;;;;;5063395;28;20207;-67
2022/12/05 00:56:11;;;;;;;36.43;18.33;;;10.20;99.90;;;;;;5064053;28;20231;-67
2022/12/05 00:58:39;;;;;;;37.27;17.80;;;10.30;99.90;;;;;;5060060;28;20540;-67
2022/12/05 01:01:06;;;;;;;35.67;17.77;;;10.30;99.90;;;;;;5061852;28;20192;-68
2022/12/05 01:03:33;;;;;;;30.60;16.93;;;10.30;99.90;;;;;;5068609;28;20638;-67
2022/12/05 01:06:01;;;;;;;32.77;17.27;;;10.30;99.90;;;;;;5059794;28;20539;-67
2022/12/05 01:08:28;;;;;;;35.40;18.73;;;10.40;99.90;;;;;;5065625;28;20548;-67
2022/12/05 01:10:56;;;;;;;34.30;18.47;;;10.30;99.90;;;;;;5060695;28;20251;-67
2022/12/05 01:13:24;;;;;;;31.23;16.23;;;10.40;99.90;;;;;;5060226;28;20586;-67
2022/12/05 01:15:52;;;;;;;30.40;15.87;;;10.40;99.90;;;;;;5058762;28;20973;-67
2022/12/05 01:18:20;;;;;;;29.27;17.43;;;10.40;99.90;;;;;;5067058;28;20195;-67
2022/12/05 01:20:48;;;;;;;29.30;15.77;;;10.40;99.90;;;;;;5065115;28;20207;-67
2022/12/05 01:23:15;;;;;;;29.90;16.17;;;10.40;99.90;;;;;;5070448;28;20192;-67
2022/12/05 01:25:45;;;;;;;35.57;17.20;;;10.40;99.90;;;;;;5061970;28;20207;-67
2022/12/05 01:28:12;;;;;;;41.80;17.90;;;10.40;99.90;;;;;;5058438;28;20201;-67
2022/12/05 01:30:42;;;;;;;27.07;15.90;;;10.40;99.90;;;;;;5060312;28;20223;-67
2022/12/05 01:33:09;;;;;;;34.50;18.37;;;10.40;99.90;;;;;;5055773;28;20278;-67
2022/12/05 01:35:38;;;;;;;33.20;17.00;;;10.40;99.90;;;;;;5061782;28;20302;-67
2022/12/05 01:38:06;;;;;;;30.30;16.73;;;10.50;99.90;;;;;;5059762;28;20275;-67
2022/12/05 01:40:37;;;;;;;30.27;16.97;;;10.50;99.90;;;;;;5063147;28;20664;-67
2022/12/05 01:43:12;;;;;;;35.13;17.77;;;10.50;99.90;;;;;;5061294;28;20291;-67
2022/12/05 01:45:42;;;;;;;33.97;18.20;;;10.40;99.90;;;;;;5064160;28;20215;-68
2022/12/05 01:48:18;;;;;;;36.47;16.77;;;10.50;99.90;;;;;;5064194;28;20547;-67
2022/12/05 01:50:47;;;;;;;33.50;17.80;;;10.40;99.90;;;;;;5062207;28;20204;-67
2022/12/05 01:53:16;;;;;;;33.10;18.20;;;10.40;99.90;;;;;;5059235;28;20604;-67
2022/12/05 01:55:46;;;;;;;30.90;18.10;;;10.40;99.90;;;;;;5059059;28;20196;-67
2022/12/05 01:58:14;;;;;;;36.27;17.50;;;10.40;99.90;;;;;;5060403;28;20197;-67
2022/12/05 02:00:41;;;;;;;35.47;18.27;;;10.40;99.90;;;;;;5061285;28;20203;-68
2022/12/05 02:03:15;;;;;;;34.97;17.83;;;10.40;99.90;;;;;;5059102;28;20269;-67
2022/12/05 02:05:45;;;;;;;34.37;16.97;;;10.50;99.90;;;;;;5061962;28;20214;-67
2022/12/05 02:08:12;;;;;;;33.33;18.10;;;10.50;99.90;;;;;;5065839;28;20197;-67
2022/12/05 02:10:51;;;;;;;30.60;16.30;;;10.50;99.90;;;;;;5057803;28;20207;-67
2022/12/05 02:13:33;;;;;;;34.63;17.70;;;10.50;99.90;;;;;;5063958;28;20640;-67
2022/12/05 02:16:00;;;;;;;39.23;18.17;;;10.50;99.90;;;;;;5059886;28;20554;-67
2022/12/05 02:18:50;;;;;;;37.63;18.00;;;10.50;99.90;;;;;;5065116;28;20231;-67
2022/12/05 02:21:55;;;;;;;31.97;16.90;;;10.50;99.90;;;;;;5062038;28;20196;-67
2022/12/05 02:24:49;;;;;;;31.40;16.47;;;10.50;99.90;;;;;;5060261;28;20187;-67
2022/12/05 02:27:31;;;;;;;37.83;17.33;;;10.50;99.90;;;;;;5056370;28;20678;-68
2022/12/05 02:30:11;;;;;;;31.27;17.27;;;10.50;99.90;;;;;;5062094;28;20194;-67
2022/12/05 02:33:06;;;;;;;33.80;16.10;;;10.50;99.90;;;;;;5064734;28;20690;-67
2022/12/05 02:35:48;;;;;;;34.60;16.80;;;10.50;99.90;;;;;;5063293;28;20206;-67
2022/12/05 02:38:19;;;;;;;30.07;15.93;;;10.50;99.90;;;;;;5062064;28;20219;-67
2022/12/05 02:41:07;;;;;;;43.87;18.30;;;10.50;99.90;;;;;;5055580;28;20238;-67
2022/12/05 02:43:58;;;;;;;31.37;17.40;;;10.50;99.90;;;;;;5058583;28;20700;-67
2022/12/05 02:46:28;;;;;;;43.97;17.43;;;10.60;99.90;;;;;;5061452;28;20189;-68
2022/12/05 02:49:02;;;;;;;31.43;17.40;;;10.60;99.90;;;;;;5068374;28;20188;-68
2022/12/05 02:51:37;;;;;;;34.57;18.30;;;10.50;99.90;;;;;;5064602;28;20221;-70
2022/12/05 02:54:09;;;;;;;34.37;17.60;;;10.50;99.90;;;;;;5063905;28;20695;-68
2022/12/05 02:56:36;;;;;;;30.90;16.40;;;10.60;99.90;;;;;;5067252;28;20566;-67
2022/12/05 02:59:03;;;;;;;30.67;17.00;;;10.50;99.90;;;;;;5069237;28;20202;-67
2022/12/05 03:01:32;;;;;;;28.60;16.57;;;10.50;99.90;;;;;;5062531;28;20712;-67
2022/12/05 03:04:03;;;;;;;43.30;18.23;;;10.50;99.90;;;;;;5058981;28;20206;-67
2022/12/05 03:06:33;;;;;;;37.83;17.87;;;10.60;99.90;;;;;;5063098;28;20200;-68
2022/12/05 03:09:24;;;;;;;36.20;17.90;;;10.60;99.90;;;;;;5066653;28;20203;-68
2022/12/05 03:12:06;;;;;;;37.70;18.33;;;10.50;99.90;;;;;;5062884;28;20342;-67
2022/12/05 03:14:43;;;;;;;45.27;18.60;;;10.50;99.90;;;;;;5064514;28;20195;-68
2022/12/05 03:17:15;;;;;;;39.87;17.63;;;10.60;99.90;;;;;;5064430;28;20213;-67
2022/12/05 03:19:48;;;;;;;37.47;18.40;;;10.60;99.90;;;;;;5063034;28;20331;-68
2022/12/05 03:22:27;;;;;;;34.23;19.83;;;10.60;99.90;;;;;;5069009;28;20558;-68
2022/12/05 03:24:58;;;;;;;36.57;18.33;;;10.60;99.90;;;;;;5062045;28;20231;-67
2022/12/05 03:27:25;;;;;;;39.47;19.00;;;10.60;99.80;;;;;;5065656;28;20499;-68
2022/12/05 03:30:06;;;;;;;39.10;19.20;;;10.60;99.80;;;;;;5062905;28;20206;-67
2022/12/05 03:32:54;;;;;;;31.40;18.43;;;10.60;99.80;;;;;;5059617;28;20216;-68
2022/12/05 03:35:48;;;;;;;35.03;19.30;;;10.60;99.80;;;;;;5063344;28;20561;-68
2022/12/05 03:38:50;;;;;;;37.67;19.73;;;10.60;99.80;;;;;;5064829;28;20214;-68
2022/12/05 03:41:45;;;;;;;37.17;19.37;;;10.60;99.90;;;;;;5063724;28;20204;-68
2022/12/05 03:44:18;;;;;;;36.40;21.10;;;10.60;99.70;;;;;;5065425;28;20643;-68
2022/12/05 03:47:04;;;;;;;37.40;18.63;;;10.60;99.70;;;;;;5064652;28;20578;-67
2022/12/05 03:49:46;;;;;;;40.03;20.03;;;10.60;99.70;;;;;;5067436;28;20203;-68
2022/12/05 03:52:20;;;;;;;42.93;20.50;;;10.50;99.70;;;;;;5063168;28;20240;-67
2022/12/05 03:54:52;;;;;;;42.43;20.43;;;10.60;99.70;;;;;;5061701;28;20638;-67
2022/12/05 03:57:52;;;;;;;35.53;19.13;;;10.50;99.70;;;;;;5062578;28;20197;-67
2022/12/05 04:00:22;;;;;;;45.03;19.90;;;10.50;99.80;;;;;;5062379;28;20258;-67
2022/12/05 04:02:49;;;;;;;38.27;19.57;;;10.50;99.70;;;;;;5060870;28;20205;-68
2022/12/05 04:05:20;;;;;;;38.07;21.13;;;10.50;99.70;;;;;;5063330;28;20668;-68
2022/12/05 04:07:53;;;;;;;40.43;19.77;;;10.50;99.70;;;;;;5061432;28;20204;-67
2022/12/05 04:10:26;;;;;;;42.97;19.90;;;10.40;99.70;;;;;;5056602;28;20222;-68
2022/12/05 04:12:57;;;;;;;42.07;20.60;;;10.40;99.80;;;;;;5060288;28;20251;-67
2022/12/05 04:17:02;;;;;;;43.03;19.93;;;10.40;99.90;;;;;;5063006;28;20193;-68
2022/12/05 04:18:20;;;;;;;43.30;19.27;;;10.40;99.90;;;;;;5064699;28;20193;-68
2022/12/05 04:23:34;;;;;;;39.07;20.10;;;10.30;99.90;;;;;;5063468;28;20207;-68
2022/12/05 04:26:22;;;;;;;46.07;20.37;;;10.40;99.90;;;;;;5061239;28;20673;-67
2022/12/05 04:28:56;;;;;;;47.47;20.90;;;10.40;99.90;;;;;;5067886;28;20298;-68
2022/12/05 04:31:29;;;;;;;47.47;19.83;;;10.30;99.90;;;;;;5062852;28;20199;-68
2022/12/05 04:34:01;;;;;;;46.67;19.60;;;10.40;99.90;;;;;;5069765;28;20216;-68
2022/12/05 04:36:37;;;;;;;43.43;18.63;;;10.30;99.90;;;;;;5068580;28;20192;-67
2022/12/05 04:39:09;;;;;;;43.07;19.40;;;10.40;99.90;;;;;;5067393;28;20564;-68
2022/12/05 04:41:52;;;;;;;45.87;19.10;;;10.40;99.90;;;;;;5061704;28;20209;-67
2022/12/05 04:44:24;;;;;;;33.43;18.33;;;10.40;99.90;;;;;;5066886;28;20190;-68
2022/12/05 04:46:54;;;;;;;47.17;18.20;;;10.40;99.90;;;;;;5062015;28;20212;-67
2022/12/05 04:49:25;;;;;;;37.50;18.13;;;10.40;99.90;;;;;;5064752;28;20199;-68
2022/12/05 04:51:56;;;;;;;42.40;18.13;;;10.40;99.90;;;;;;5066675;28;20196;-68
2022/12/05 04:54:31;;;;;;;39.83;18.40;;;10.40;99.90;;;;;;5060983;28;20253;-69
2022/12/05 04:57:11;;;;;;;42.60;19.53;;;10.40;99.90;;;;;;5068538;28;20284;-67
2022/12/05 04:59:38;;;;;;;38.77;18.33;;;10.40;99.90;;;;;;5065315;28;20261;-68
2022/12/05 05:02:11;;;;;;;47.67;18.53;;;10.40;99.90;;;;;;5061422;28;20217;-67
2022/12/05 05:04:44;;;;;;;46.17;19.90;;;10.40;99.90;;;;;;5066493;28;20249;-68
2022/12/05 05:07:12;;;;;;;45.90;19.00;;;10.40;99.90;;;;;;5061545;28;20209;-68
2022/12/05 05:09:40;;;;;;;54.87;19.33;;;10.40;99.90;;;;;;5061232;28;20202;-67
2022/12/05 05:12:07;;;;;;;47.57;20.40;;;10.40;99.90;;;;;;5060677;28;20295;-67
2022/12/05 05:14:34;;;;;;;41.13;17.47;;;10.50;99.90;;;;;;5062920;28;20229;-67
2022/12/05 05:17:02;;;;;;;48.10;19.00;;;10.40;99.90;;;;;;5058550;28;20251;-68
2022/12/05 05:19:29;;;;;;;46.00;19.83;;;10.40;99.90;;;;;;5064076;28;20196;-68
2022/12/05 05:21:56;;;;;;;43.07;19.30;;;10.40;99.90;;;;;;5066636;28;20199;-67
2022/12/05 05:24:25;;;;;;;45.80;20.30;;;10.40;99.90;;;;;;5060133;28;20551;-68
2022/12/05 05:26:52;;;;;;;42.57;20.07;;;10.40;99.90;;;;;;5065717;28;20193;-68
2022/12/05 05:29:23;;;;;;;44.17;18.73;;;10.40;99.90;;;;;;5061887;28;20240;-67
2022/12/05 05:31:50;;;;;;;50.20;19.83;;;10.40;99.90;;;;;;5060283;28;20191;-68
2022/12/05 05:34:17;;;;;;;45.00;21.10;;;10.40;99.90;;;;;;5061697;28;20568;-67
2022/12/05 05:36:44;;;;;;;41.40;19.47;;;10.50;99.90;;;;;;5064800;28;20207;-68
2022/12/05 05:39:14;;;;;;;43.87;20.03;;;10.40;99.90;;;;;;5057820;28;20214;-67
2022/12/05 05:41:42;;;;;;;42.03;20.00;;;10.50;99.90;;;;;;5065246;28;20213;-68
2022/12/05 05:44:09;;;;;;;42.70;18.67;;;10.50;99.90;;;;;;5060144;28;20207;-67
2022/12/05 05:46:37;;;;;;;47.03;20.37;;;10.50;99.90;;;;;;5061046;28;20251;-67
2022/12/05 05:49:05;;;;;;;44.07;20.50;;;10.50;99.90;;;;;;5063099;28;20197;-67
2022/12/05 05:51:32;;;;;;;42.17;21.17;;;10.50;99.90;;;;;;5067314;28;20199;-67
2022/12/05 05:53:59;;;;;;;49.57;21.00;;;10.60;99.90;;;;;;5063740;28;20224;-67
2022/12/05 05:56:27;;;;;;;52.27;22.20;;;10.50;99.90;;;;;;5063807;28;20195;-68
2022/12/05 05:59:01;;;;;;;59.40;22.33;;;10.60;99.90;;;;;;5061118;28;20197;-67
2022/12/05 06:01:29;;;;;;;56.47;22.33;;;10.60;99.90;;;;;;5061047;28;20202;-67
2022/12/05 06:03:56;;;;;;;53.87;21.33;;;10.50;99.90;;;;;;5063391;28;20207;-68
2022/12/05 06:06:24;;;;;;;52.83;22.67;;;10.50;99.90;;;;;;5064771;28;20221;-67
2022/12/05 06:08:53;;;;;;;55.87;23.80;;;10.50;99.90;;;;;;5065376;28;20215;-68
2022/12/05 06:11:26;;;;;;;59.30;24.33;;;10.50;99.90;;;;;;5053873;28;20244;-67
2022/12/05 06:13:54;;;;;;;70.90;24.13;;;10.50;99.90;;;;;;5063916;28;20217;-67
2022/12/05 06:16:22;;;;;;;56.87;22.77;;;10.50;99.90;;;;;;5060348;28;20261;-68
2022/12/05 06:18:50;;;;;;;56.07;22.07;;;10.50;99.90;;;;;;5061420;28;20287;-67
2022/12/05 06:21:17;;;;;;;78.50;24.60;;;10.50;99.90;;;;;;5056572;28;20202;-67
2022/12/05 06:23:44;;;;;;;61.30;22.10;;;10.50;99.90;;;;;;5064826;28;20209;-67
2022/12/05 06:26:15;;;;;;;77.23;24.60;;;10.50;99.90;;;;;;5063096;28;20716;-68
2022/12/05 06:28:43;;;;;;;107.93;25.13;;;10.50;99.90;;;;;;5064279;28;20203;-67
2022/12/05 06:31:14;;;;;;;68.13;24.13;;;10.50;99.90;;;;;;5072460;28;20719;-67
2022/12/05 06:33:41;;;;;;;80.07;25.37;;;10.50;99.90;;;;;;5066833;28;20223;-67
2022/12/05 06:36:11;;;;;;;94.77;25.50;;;10.50;99.90;;;;;;5062935;28;20526;-67
2022/12/05 06:38:39;;;;;;;74.00;25.13;;;10.50;99.90;;;;;;5067209;28;20321;-67
2022/12/05 06:41:17;;;;;;;80.97;25.87;;;10.50;99.90;;;;;;5071256;28;20636;-67
2022/12/05 06:43:44;;;;;;;113.40;25.37;;;10.50;99.90;;;;;;5070341;28;20260;-67
2022/12/05 06:46:13;;;;;;;276.13;32.40;;;10.50;99.90;;;;;;5062054;28;20203;-68
2022/12/05 06:48:40;;;;;;;110.37;25.77;;;10.50;99.90;;;;;;5066292;28;20240;-67
2022/12/05 06:51:12;;;;;;;61.23;24.10;;;10.50;99.90;;;;;;5061889;28;20255;-67
2022/12/05 06:53:40;;;;;;;75.80;25.63;;;10.50;99.90;;;;;;5065824;28;20211;-67
2022/12/05 06:56:11;;;;;;;87.63;24.73;;;10.60;99.90;;;;;;5065400;28;20204;-68
2022/12/05 06:58:43;;;;;;;91.10;25.87;;;10.60;99.90;;;;;;5070526;28;20195;-67
2022/12/05 07:04:16;;;;;;;130.47;27.57;;;10.60;99.90;;;;;;5061643;28;20200;-68
2022/12/05 07:06:44;;;;;;;112.83;26.90;;;10.60;99.90;;;;;;5066514;28;20637;-67
2022/12/05 07:09:18;;;;;;;151.70;28.77;;;10.60;99.90;;;;;;5067836;28;20200;-68
2022/12/05 07:11:47;;;;;;;80.40;26.33;;;10.60;99.90;;;;;;5062923;28;20690;-66
2022/12/05 07:14:15;;;;;;;83.50;27.67;;;10.60;99.90;;;;;;5063456;28;20216;-67
2022/12/05 07:17:02;;;;;;;110.53;27.57;;;10.60;99.90;;;;;;5064082;28;20201;-67
2022/12/05 07:19:29;;;;;;;83.63;27.73;;;10.60;99.90;;;;;;5063583;28;20201;-67
2022/12/05 07:21:56;;;;;;;80.97;25.67;;;10.60;99.90;;;;;;5061048;28;20258;-67
2022/12/05 07:24:23;;;;;;;101.63;28.27;;;10.70;99.90;;;;;;5079127;28;20200;-67
2022/12/05 07:26:50;;;;;;;123.77;27.90;;;10.70;99.90;;;;;;5066217;28;20251;-68
2022/12/05 07:29:17;;;;;;;100.00;27.40;;;10.70;99.90;;;;;;5062140;28;20565;-67
2022/12/05 07:31:45;;;;;;;344.57;36.77;;;10.70;99.90;;;;;;5062898;28;20661;-67
2022/12/05 07:34:12;;;;;;;117.80;26.17;;;10.70;99.90;;;;;;5063918;28;20221;-67
2022/12/05 07:36:39;;;;;;;122.33;27.97;;;10.70;99.90;;;;;;5062524;28;20615;-67
2022/12/05 07:39:06;;;;;;;133.70;29.53;;;10.70;99.90;;;;;;5069797;28;20198;-67
2022/12/05 07:41:34;;;;;;;166.83;28.53;;;10.70;99.90;;;;;;5072211;28;20200;-67
2022/12/05 07:44:06;;;;;;;153.50;28.40;;;10.70;99.90;;;;;;5062662;28;20215;-67
2022/12/05 07:46:34;;;;;;;109.10;28.93;;;10.70;99.90;;;;;;5065235;28;20603;-67
2022/12/05 07:49:01;;;;;;;122.27;25.77;;;10.80;99.90;;;;;;5065903;28;20196;-67
2022/12/05 07:51:28;;;;;;;121.33;28.00;;;10.80;99.90;;;;;;5061198;28;20255;-67
2022/12/05 07:53:57;;;;;;;99.43;26.00;;;10.80;99.90;;;;;;5066105;28;20299;-67
2022/12/05 07:56:24;;;;;;;68.33;25.73;;;10.80;99.90;;;;;;5061825;28;20209;-68
2022/12/05 07:58:51;;;;;;;222.10;29.80;;;10.90;99.90;;;;;;5063747;28;20204;-67
2022/12/05 08:01:22;;;;;;;125.90;26.23;;;10.90;99.90;;;;;;5063661;28;20232;-67
2022/12/05 08:03:52;;;;;;;184.13;28.60;;;10.80;99.90;;;;;;5066704;28;20228;-67
2022/12/05 08:06:23;;;;;;;155.13;28.07;;;10.80;99.90;;;;;;5064654;28;20205;-67
2022/12/05 08:08:50;;;;;;;237.70;32.47;;;10.90;99.90;;;;;;5070909;28;20218;-67
2022/12/05 08:11:20;;;;;;;179.67;27.73;;;10.80;99.90;;;;;;5059216;28;20240;-67
2022/12/05 08:13:48;;;;;;;146.10;29.53;;;10.80;99.90;;;;;;5059820;28;20232;-67
2022/12/05 08:16:20;;;;;;;105.40;25.67;;;10.80;99.90;;;;;;5060371;28;20203;-67
2022/12/05 08:18:47;;;;;;;100.83;26.57;;;10.80;99.90;;;;;;5062794;28;20227;-67
2022/12/05 08:21:17;;;;;;;118.40;27.93;;;10.80;99.90;;;;;;5063556;28;20203;-67
2022/12/05 08:23:45;;;;;;;142.90;27.83;;;10.80;99.90;;;;;;5063207;28;20636;-67
2022/12/05 08:26:15;;;;;;;137.27;25.87;;;10.90;99.90;;;;;;5060359;28;20208;-67
2022/12/05 08:28:43;;;;;;;113.97;27.10;;;10.90;99.90;;;;;;5071422;28;20212;-67
2022/12/05 08:31:15;;;;;;;126.47;27.47;;;10.90;99.90;;;;;;5058861;28;20686;-67
2022/12/05 08:33:43;;;;;;;119.00;24.73;;;11.00;99.90;;;;;;5062189;28;20259;-67
2022/12/05 08:36:12;;;;;;;95.60;24.97;;;11.00;99.90;;;;;;5064575;28;20206;-67
2022/12/05 08:38:40;;;;;;;72.57;23.27;;;11.00;99.90;;;;;;5064365;28;20518;-67
2022/12/05 08:41:10;;;;;;;97.43;23.20;;;11.00;99.90;;;;;;5061684;28;20204;-67
2022/12/05 08:43:37;;;;;;;96.57;24.80;;;11.10;99.90;;;;;;5064168;28;20201;-67
2022/12/05 08:46:05;;;;;;;170.77;27.00;;;11.00;99.90;;;;;;5057005;28;20576;-68
2022/12/05 08:48:33;;;;;;;95.00;23.57;;;11.10;99.90;;;;;;5056313;28;20193;-67
2022/12/05 08:51:08;;;;;;;89.07;23.20;;;11.10;99.90;;;;;;5064164;28;20203;-67
2022/12/05 08:53:37;;;;;;;65.07;22.43;;;11.10;99.90;;;;;;5063851;28;20216;-64
2022/12/05 08:56:11;;;;;;;78.07;24.30;;;11.20;99.90;;;;;;5062148;28;20200;-65
2022/12/05 08:58:38;;;;;;;71.33;22.53;;;11.20;99.90;;;;;;5068235;28;20196;-64
2022/12/05 09:01:11;;;;;;;91.43;24.00;;;11.20;99.90;;;;;;5061588;28;20219;-66
2022/12/05 09:03:39;;;;;;;70.33;22.23;;;11.20;99.90;;;;;;5063840;28;20296;-66
2022/12/05 09:06:24;;;;;;;67.83;22.30;;;11.20;99.90;;;;;;5061349;28;20290;-65
2022/12/05 09:09:01;;;;;;;76.87;24.00;;;11.20;99.90;;;;;;5067713;28;20213;-64
2022/12/05 09:11:30;;;;;;;70.30;21.73;;;11.20;99.90;;;;;;5064752;28;20245;-64
2022/12/05 09:13:59;;;;;;;79.70;24.33;;;11.20;99.90;;;;;;5058979;28;20224;-65
2022/12/05 09:16:32;;;;;;;64.53;23.40;;;11.20;99.90;;;;;;5066337;28;20204;-66
2022/12/05 09:19:11;;;;;;;85.43;23.17;;;11.20;99.90;;;;;;5063385;28;20212;-65
2022/12/05 09:21:38;;;;;;;63.10;23.23;;;11.20;99.90;;;;;;5061673;28;20203;-65
2022/12/05 09:24:05;;;;;;;72.57;23.67;;;11.20;99.90;;;;;;5060996;28;20192;-65
2022/12/05 09:26:32;;;;;;;67.57;26.33;;;11.30;99.90;;;;;;5059081;28;20250;-64
2022/12/05 09:29:01;;;;;;;61.20;24.50;;;11.30;99.90;;;;;;5064562;28;20284;-65
2022/12/05 09:31:29;;;;;;;57.30;23.13;;;11.30;99.90;;;;;;5066267;28;20238;-66
2022/12/05 09:33:56;;;;;;;59.77;22.60;;;11.40;99.90;;;;;;5059400;28;20216;-65
2022/12/05 09:36:29;;;;;;;51.33;22.83;;;11.40;99.90;;;;;;5059507;28;20199;-66
2022/12/05 09:39:01;;;;;;;66.30;22.90;;;11.40;99.90;;;;;;5062424;28;20207;-65
2022/12/05 09:42:06;;;;;;;81.97;23.93;;;11.50;99.90;;;;;;5067684;28;20663;-66
2022/12/05 09:44:48;;;;;;;54.97;22.73;;;11.50;99.90;;;;;;5063096;28;20217;-65
2022/12/05 09:47:28;;;;;;;51.90;22.83;;;11.50;99.90;;;;;;5062169;28;20205;-65
2022/12/05 09:50:16;;;;;;;84.10;24.27;;;11.50;99.90;;;;;;5063842;28;20197;-65
2022/12/05 09:53:04;;;;;;;67.00;21.83;;;11.50;99.90;;;;;;5061041;28;20204;-65
2022/12/05 09:55:44;;;;;;;38.57;18.73;;;11.60;99.90;;;;;;5063859;28;20544;-65
2022/12/05 09:58:31;;;;;;;45.67;19.10;;;11.60;99.90;;;;;;5058156;28;20213;-65
2022/12/05 10:01:07;;;;;;;35.30;17.47;;;11.60;99.90;;;;;;5064164;28;20203;-65
2022/12/05 10:04:01;;;;;;;40.20;18.33;;;11.60;99.90;;;;;;5063290;28;20215;-64
2022/12/05 10:06:46;;;;;;;39.27;16.97;;;11.60;99.90;;;;;;5063771;28;20589;-64
2022/12/05 10:09:25;;;;;;;39.83;18.70;;;11.60;99.90;;;;;;5064151;28;20576;-65
2022/12/05 10:12:16;;;;;;;38.73;18.10;;;11.60;99.90;;;;;;5055928;28;20742;-65
2022/12/05 10:14:46;;;;;;;42.90;19.53;;;11.60;99.90;;;;;;5056109;28;20244;-65
2022/12/05 10:17:27;;;;;;;35.77;17.10;;;11.60;99.90;;;;;;5059982;28;20228;-64
2022/12/05 10:19:59;;;;;;;31.73;16.40;;;11.70;99.90;;;;;;5065001;28;20207;-64
2022/12/05 10:22:50;;;;;;;34.83;17.13;;;11.70;99.90;;;;;;5062217;28;20198;-64
2022/12/05 10:25:20;;;;;;;36.73;17.67;;;11.70;99.90;;;;;;5058529;28;20202;-65
2022/12/05 10:27:55;;;;;;;44.03;17.30;;;11.70;99.90;;;;;;5058731;28;20218;-64
2022/12/05 10:30:34;;;;;;;38.93;18.60;;;11.80;99.90;;;;;;5061264;28;20231;-65
2022/12/05 10:33:19;;;;;;;47.87;20.43;;;11.80;99.90;;;;;;5057942;28;20232;-64
2022/12/05 10:35:52;;;;;;;49.70;19.40;;;11.80;99.90;;;;;;5064744;22;20241;-84
2022/12/05 10:38:24;;;;;;;44.17;19.87;;;11.80;99.90;;;;;;5046662;28;20208;-82
2022/12/05 10:40:59;;;;;;;41.27;19.57;;;11.80;99.90;;;;;;5049237;28;20285;-83
2022/12/05 10:43:30;;;;;;;36.73;17.70;;;11.80;99.90;;;;;;5045405;28;20632;-82
2022/12/05 10:45:58;;;;;;;35.50;18.27;;;11.80;99.90;;;;;;5049339;28;20279;-84
2022/12/05 10:48:26;;;;;;;44.57;19.37;;;11.80;99.90;;;;;;5041444;28;20572;-83
2022/12/05 10:50:59;;;;;;;39.60;19.40;;;11.80;99.90;;;;;;5036505;28;20308;-83
2022/12/05 10:53:44;;;;;;;33.30;17.67;;;11.90;99.90;;;;;;5044398;28;20703;-83
2022/12/05 10:59:20;;;;;;;34.27;18.03;;;12.00;99.90;;;;;;3030874;26;20238;-62
2022/12/05 11:01:50;;;;;;;34.90;16.40;;;12.00;99.90;;;;;;5060111;28;20197;-63
2022/12/05 11:04:40;;;;;;;35.43;16.90;;;12.00;99.80;;;;;;5061666;28;20205;-63
2022/12/05 11:07:22;;;;;;;43.97;18.37;;;12.10;99.80;;;;;;5062449;28;20205;-62
2022/12/05 11:09:49;;;;;;;35.80;17.90;;;12.10;99.80;;;;;;5067912;28;20308;-62
2022/12/05 11:12:19;;;;;;;39.17;19.23;;;12.10;99.80;;;;;;5068856;28;20295;-62
2022/12/05 11:15:15;;;;;;;37.00;17.53;;;12.10;99.70;;;;;;5065648;28;20205;-62
2022/12/05 11:17:42;;;;;;;34.97;16.83;;;12.20;99.70;;;;;;5065341;28;20643;-63
2022/12/05 11:20:19;;;;;;;33.67;15.97;;;12.20;99.70;;;;;;5051196;28;20205;-64
2022/12/05 11:22:49;;;;;;;30.17;16.80;;;12.20;99.50;;;;;;5068878;28;20192;-62
2022/12/05 11:25:29;;;;;;;34.50;17.27;;;12.20;99.50;;;;;;5060528;28;20202;-62
2022/12/05 11:28:19;;;;;;;33.43;16.73;;;12.20;99.30;;;;;;5067211;28;20208;-64
2022/12/05 11:31:01;;;;;;;29.17;16.33;;;12.20;99.30;;;;;;5058913;28;20276;-63
2022/12/05 11:33:33;;;;;;;27.63;14.60;;;12.20;99.30;;;;;;5063537;28;20216;-63
2022/12/05 11:36:19;;;;;;;30.90;15.20;;;12.20;99.40;;;;;;5049037;28;20192;-62
2022/12/05 11:38:47;;;;;;;30.70;14.90;;;12.30;99.40;;;;;;5069476;28;20222;-62
2022/12/05 11:41:51;;;;;;;20.07;14.73;;;12.30;99.60;;;;;;5044459;28;20267;-62
2022/12/05 11:44:55;;;;;;;28.07;16.43;;;12.30;99.30;;;;;;5060874;28;20543;-63
2022/12/05 11:47:40;;;;;;;25.37;14.73;;;12.40;99.20;;;;;;5063488;28;20652;-61
2022/12/05 11:50:14;;;;;;;26.63;14.93;;;12.40;99.00;;;;;;5064923;28;20204;-62
2022/12/05 11:52:55;;;;;;;29.23;14.37;;;12.40;99.20;;;;;;5062659;28;20202;-62
2022/12/05 11:55:33;;;;;;;26.27;14.53;;;12.40;98.90;;;;;;5062973;28;20239;-64
2022/12/05 11:58:20;;;;;;;21.47;13.30;;;12.40;98.90;;;;;;5060067;28;20195;-64
2022/12/05 12:01:05;;;;;;;24.37;13.03;;;12.40;99.00;;;;;;5069011;28;20236;-62
2022/12/05 12:04:06;;;;;;;24.17;14.23;;;12.40;98.90;;;;;;5061936;28;20206;-63
2022/12/05 12:07:02;;;;;;;28.67;15.70;;;12.40;98.80;;;;;;5063310;28;20207;-63
2022/12/05 12:10:02;;;;;;;20.97;13.23;;;12.40;98.80;;;;;;5062490;28;20206;-65
2022/12/05 12:13:16;;;;;;;22.00;13.77;;;12.40;98.80;;;;;;5058802;28;20292;-63
2022/12/05 12:16:20;;;;;;;20.07;12.33;;;12.50;98.80;;;;;;5056478;28;20233;-63
2022/12/05 12:19:34;;;;;;;20.33;12.87;;;12.50;98.80;;;;;;5066368;28;20229;-63
2022/12/05 12:22:13;;;;;;;27.60;13.97;;;12.50;98.80;;;;;;5033681;28;20282;-61
2022/12/05 12:25:05;;;;;;;25.23;15.47;;;12.50;98.70;;;;;;5063866;28;20212;-63
2022/12/05 12:27:54;;;;;;;32.17;15.40;;;12.50;98.80;;;;;;5062986;28;20281;-62
2022/12/05 12:30:46;;;;;;;22.77;13.27;;;12.50;98.80;;;;;;5058925;28;20210;-60
2022/12/05 12:33:20;;;;;;;27.47;13.97;;;12.50;98.80;;;;;;5061118;28;20195;-62
2022/12/05 12:36:07;;;;;;;21.63;13.13;;;12.60;98.80;;;;;;5062387;28;20231;-61
2022/12/05 12:39:08;;;;;;;23.83;13.87;;;12.60;98.80;;;;;;5061928;28;20297;-62
2022/12/05 12:41:48;;;;;;;29.03;15.13;;;12.60;98.80;;;;;;5049528;28;20199;-62
2022/12/05 12:44:18;;;;;;;23.37;13.70;;;12.60;98.70;;;;;;5063362;28;20274;-61
2022/12/05 12:47:00;;;;;;;26.93;13.90;;;12.70;98.70;;;;;;5059944;28;20213;-62
2022/12/05 12:49:30;;;;;;;24.63;14.57;;;12.70;98.60;;;;;;5046487;28;20202;-62
2022/12/05 12:52:03;;;;;;;25.70;13.60;;;12.70;98.50;;;;;;5059190;28;20616;-62
2022/12/05 12:54:37;;;;;;;24.07;15.23;;;12.70;98.40;;;;;;5048740;28;20217;-62
2022/12/05 12:57:51;;;;;;;24.33;14.43;;;12.70;98.30;;;;;;5064738;28;20209;-62
2022/12/05 13:00:59;;;;;;;27.97;15.37;;;12.70;98.40;;;;;;5061794;28;20252;-62
2022/12/05 13:03:38;;;;;;;22.73;15.10;;;12.80;98.40;;;;;;5063888;28;20217;-62
2022/12/05 13:06:31;;;;;;;26.30;14.70;;;12.80;98.30;;;;;;5052452;28;20225;-62
2022/12/05 13:09:04;;;;;;;23.00;13.77;;;12.80;98.30;;;;;;5063160;28;20303;-62
2022/12/05 13:11:37;;;;;;;22.97;14.33;;;12.80;98.20;;;;;;5070083;28;20271;-62